Time;durP1;ratioP1;P1;durP2;ratioP2;P2;SDS_P1;SDS_P2;PMS_P1;PMS_P2;Temp;Humidity;BMP_temperature;BMP_pressure;BME280_temperature;BME280_humidity;BME280_pressure;Samples;Min_cycle;Max_cycle;Signal;HPM_P1;HPM_P2
2023/02/25 00:02:00;;;;;;;;;;;;;;;4.20;75.62;98233.64;130134;1277;114749;-71
2023/02/25 00:05:06;;;;;;;4.60;4.10;;;;;;;4.13;75.56;98230.47;130130;1276;114743;-67
2023/02/25 00:08:08;;;;;;;4.70;4.30;;;;;;;4.07;75.72;98229.22;130330;1266;115234;-73
2023/02/25 00:11:12;;;;;;;6.50;5.10;;;;;;;4.03;75.83;98224.66;130135;1276;114996;-73
2023/02/25 00:14:15;;;;;;;5.50;4.70;;;;;;;4.01;75.99;98225.33;130233;1257;114877;-73
2023/02/25 00:17:17;;;;;;;6.10;5.30;;;;;;;3.98;75.93;98226.71;130223;1276;114815;-73
2023/02/25 00:20:21;;;;;;;5.90;5.30;;;;;;;3.95;75.97;98227.59;130179;1276;114719;-73
2023/02/25 00:23:24;;;;;;;6.20;5.10;;;;;;;3.91;76.19;98224.63;130106;1276;114750;-72
2023/02/25 00:26:27;;;;;;;5.80;5.20;;;;;;;3.89;76.14;98220.34;130148;1276;114972;-67
2023/02/25 00:29:30;;;;;;;6.30;5.30;;;;;;;3.86;76.24;98216.80;130131;1257;114798;-67
2023/02/25 00:32:32;;;;;;;6.20;5.20;;;;;;;3.84;76.30;98211.27;130045;1276;115435;-74
2023/02/25 00:35:39;;;;;;;5.10;4.50;;;;;;;3.81;76.29;98203.45;130181;1268;115548;-72
2023/02/25 00:38:41;;;;;;;6.10;5.10;;;;;;;3.79;76.42;98197.20;130359;1257;128614;-73
2023/02/25 00:41:43;;;;;;;6.40;5.60;;;;;;;3.77;76.41;98197.84;129977;1256;115035;-71
2023/02/25 00:44:48;;;;;;;5.60;4.70;;;;;;;3.76;76.55;98191.19;130038;1276;114762;-72
2023/02/25 00:47:50;;;;;;;7.80;5.20;;;;;;;3.75;76.39;98189.48;130103;1276;114804;-65
2023/02/25 00:50:53;;;;;;;7.20;5.80;;;;;;;3.73;76.44;98183.43;130094;1276;114732;-69
2023/02/25 00:53:56;;;;;;;10.10;5.60;;;;;;;3.70;76.53;98178.70;130120;1276;114780;-72
2023/02/25 00:56:58;;;;;;;7.50;5.40;;;;;;;3.68;76.67;98172.29;129925;1276;127892;-68
2023/02/25 01:00:01;;;;;;;5.20;4.70;;;;;;;3.67;76.63;98166.79;130067;1263;114756;-72
2023/02/25 01:03:03;;;;;;;6.60;5.40;;;;;;;3.66;76.64;98169.31;130009;1257;114750;-64
2023/02/25 01:06:08;;;;;;;5.70;5.00;;;;;;;3.65;76.64;98163.75;130046;1276;114746;-61
2023/02/25 01:09:12;;;;;;;7.70;5.50;;;;;;;3.64;76.75;98157.23;130161;1257;115246;-70
2023/02/25 01:12:15;;;;;;;10.40;5.90;;;;;;;3.64;76.74;98149.88;129970;1258;114696;-72
2023/02/25 01:15:17;;;;;;;7.40;5.50;;;;;;;3.65;76.81;98140.81;129974;1276;114830;-65
2023/02/25 01:18:20;;;;;;;6.50;5.40;;;;;;;3.64;76.68;98141.38;130057;1276;114737;-68
2023/02/25 01:21:26;;;;;;;8.30;6.00;;;;;;;3.64;76.80;98137.14;130091;1256;114737;-72
2023/02/25 01:24:31;;;;;;;9.40;6.20;;;;;;;3.64;76.73;98133.22;129535;1264;380228;-72
2023/02/25 01:27:33;;;;;;;7.40;6.10;;;;;;;3.64;76.84;98129.19;130137;1263;114673;-63
2023/02/25 01:30:37;;;;;;;10.80;7.10;;;;;;;3.64;76.81;98127.59;130098;1257;114829;-61
2023/02/25 01:33:39;;;;;;;10.80;7.00;;;;;;;3.64;76.69;98130.41;130187;1257;115407;-72
2023/02/25 01:36:42;;;;;;;9.70;6.70;;;;;;;3.65;76.90;98129.69;130132;1276;114714;-72
2023/02/25 01:39:45;;;;;;;8.20;6.40;;;;;;;3.66;76.90;98124.35;130099;1257;114725;-71
2023/02/25 01:42:47;;;;;;;11.20;6.80;;;;;;;3.67;76.95;98121.48;130124;1276;115055;-72
2023/02/25 01:45:53;;;;;;;8.40;6.50;;;;;;;3.69;76.98;98118.89;130040;1257;114762;-65
2023/02/25 01:48:55;;;;;;;7.10;6.00;;;;;;;3.69;76.90;98110.39;130019;1257;115109;-66
2023/02/25 01:52:20;;;;;;;10.30;7.50;;;;;;;3.70;76.92;98108.96;129921;1276;114817;-71
2023/02/25 01:55:22;;;;;;;10.00;6.80;;;;;;;3.71;76.78;98112.23;129620;1263;115189;-66
2023/02/25 01:58:26;;;;;;;9.00;7.20;;;;;;;3.70;76.87;98108.20;130013;1276;115182;-75
2023/02/25 02:01:31;;;;;;;9.20;7.50;;;;;;;3.72;76.97;98098.77;130081;1256;114702;-72
2023/02/25 02:04:35;;;;;;;8.50;6.90;;;;;;;3.74;77.04;98097.41;129716;1255;114840;-72
2023/02/25 02:07:38;;;;;;;9.10;7.60;;;;;;;3.77;77.24;98097.95;129671;1264;127885;-73
2023/02/25 02:10:40;;;;;;;8.20;7.00;;;;;;;3.77;77.06;98099.85;129934;1275;115180;-71
2023/02/25 02:13:47;;;;;;;11.30;8.80;;;;;;;3.76;77.00;98100.13;130151;1253;115099;-64
2023/02/25 02:17:09;;;;;;;10.80;8.10;;;;;;;3.75;77.01;98097.34;130064;1276;114712;-72
2023/02/25 02:20:27;;;;;;;10.80;7.80;;;;;;;3.76;76.98;98095.50;130023;1256;114724;-72
2023/02/25 02:23:44;;;;;;;10.90;7.90;;;;;;;3.77;77.05;98093.49;129825;1260;128316;-63
2023/02/25 02:27:16;;;;;;;12.10;9.30;;;;;;;3.77;77.04;98088.38;129676;1270;115234;-70
2023/02/25 02:30:56;;;;;;;13.70;8.80;;;;;;;3.78;76.99;98091.17;129212;1265;114892;-62
2023/02/25 02:34:15;;;;;;;10.60;7.90;;;;;;;3.79;76.96;98088.14;129289;1260;114905;-64
2023/02/25 02:37:50;;;;;;;11.60;8.70;;;;;;;3.79;76.90;98089.14;129211;1274;115241;-69
2023/02/25 02:41:20;;;;;;;11.80;9.30;;;;;;;3.81;77.12;98086.20;128625;1289;128775;-72
2023/02/25 02:44:44;;;;;;;11.70;8.80;;;;;;;3.83;76.74;98082.59;128654;1289;116544;-63
2023/02/25 02:47:53;;;;;;;12.20;9.10;;;;;;;3.82;76.96;98085.10;128657;1269;115010;-64
2023/02/25 02:50:59;;;;;;;11.10;9.80;;;;;;;3.83;76.81;98082.07;128739;1270;114999;-71
2023/02/25 02:54:05;;;;;;;12.60;8.90;;;;;;;3.84;76.90;98081.30;128864;1289;114993;-65
2023/02/25 02:57:08;;;;;;;13.40;9.10;;;;;;;3.84;76.75;98086.26;129068;1273;129055;-70
2023/02/25 03:00:16;;;;;;;10.10;8.70;;;;;;;3.85;76.87;98084.80;128822;1289;115270;-66
2023/02/25 03:03:22;;;;;;;14.00;9.00;;;;;;;3.85;76.86;98082.14;128989;1267;114919;-71
2023/02/25 03:06:29;;;;;;;11.20;8.70;;;;;;;3.87;76.77;98086.58;129066;1266;115023;-61
2023/02/25 03:09:42;;;;;;;15.50;9.00;;;;;;;3.89;76.85;98085.10;129366;1276;114836;-71
2023/02/25 03:12:44;;;;;;;10.90;8.10;;;;;;;3.89;76.81;98085.23;129140;1283;128599;-70
2023/02/25 03:15:48;;;;;;;11.20;7.90;;;;;;;3.89;76.88;98091.04;129564;1276;115016;-70
2023/02/25 03:18:58;;;;;;;11.80;7.10;;;;;;;3.90;76.76;98089.75;130037;1259;114769;-67
2023/02/25 03:22:06;;;;;;;9.30;7.20;;;;;;;3.90;76.64;98084.83;129974;1254;114829;-62
2023/02/25 03:25:21;;;;;;;9.30;6.90;;;;;;;3.89;76.69;98090.55;130127;1258;115053;-62
2023/02/25 03:28:31;;;;;;;9.30;6.70;;;;;;;3.87;76.37;98086.08;129760;1271;127741;-61
2023/02/25 03:31:50;;;;;;;9.70;6.70;;;;;;;3.84;76.52;98084.30;129743;1270;115192;-62
2023/02/25 03:34:56;;;;;;;10.20;7.10;;;;;;;3.82;76.46;98088.47;129832;1258;115440;-70
2023/02/25 03:38:06;;;;;;;9.10;6.90;;;;;;;3.79;76.35;98085.27;130106;1261;116384;-62
2023/02/25 03:41:10;;;;;;;8.80;6.60;;;;;;;3.76;76.41;98089.33;129940;1270;114740;-63
2023/02/25 03:44:16;;;;;;;8.70;6.20;;;;;;;3.72;76.28;98085.00;129628;1256;128158;-71
2023/02/25 03:47:22;;;;;;;9.90;6.30;;;;;;;3.63;76.25;98087.09;129639;1264;115173;-65
2023/02/25 03:50:28;;;;;;;8.90;6.70;;;;;;;3.55;76.10;98081.04;129641;1273;114878;-59
2023/02/25 03:53:31;;;;;;;10.60;6.00;;;;;;;3.46;76.13;98080.79;129983;1276;114775;-60
2023/02/25 03:56:45;;;;;;;10.90;6.50;;;;;;;3.39;76.18;98082.80;129927;1259;115365;-67
2023/02/25 03:59:48;;;;;;;9.60;6.30;;;;;;;3.33;76.25;98082.77;129965;1272;128965;-65
2023/02/25 04:02:51;;;;;;;15.00;7.40;;;;;;;3.29;76.34;98080.88;129987;1276;115244;-65
2023/02/25 04:05:53;;;;;;;10.30;6.10;;;;;;;3.26;76.40;98079.42;130100;1253;114792;-72
2023/02/25 04:08:56;;;;;;;9.90;5.80;;;;;;;3.24;76.38;98080.23;130052;1276;114739;-72
2023/02/25 04:11:58;;;;;;;8.60;5.80;;;;;;;3.23;76.48;98080.87;130236;1254;114769;-63
2023/02/25 04:15:02;;;;;;;9.30;5.60;;;;;;;3.22;76.60;98081.61;129944;1261;116364;-64
2023/02/25 04:18:05;;;;;;;11.70;5.30;;;;;;;3.22;76.57;98082.15;129948;1254;128990;-67
2023/02/25 04:21:08;;;;;;;10.50;5.40;;;;;;;3.23;76.72;98078.56;130119;1258;114871;-72
2023/02/25 04:24:11;;;;;;;8.40;5.10;;;;;;;3.23;76.48;98075.17;130097;1256;115198;-62
2023/02/25 04:27:14;;;;;;;11.90;5.90;;;;;;;3.25;76.53;98076.84;130103;1254;115151;-66
2023/02/25 04:30:17;;;;;;;10.40;4.70;;;;;;;3.26;76.51;98072.90;130084;1276;114759;-61
2023/02/25 04:33:20;;;;;;;10.10;4.70;;;;;;;3.28;76.44;98064.84;129996;1276;114991;-63
2023/02/25 04:36:31;;;;;;;10.30;5.00;;;;;;;3.30;76.43;98056.61;129964;1267;114808;-71
2023/02/25 04:39:33;;;;;;;8.70;4.60;;;;;;;3.33;76.49;98051.67;129752;1256;114834;-62
2023/02/25 04:42:36;;;;;;;13.10;4.30;;;;;;;3.35;76.49;98045.96;130073;1253;114724;-71
2023/02/25 04:45:38;;;;;;;8.30;4.30;;;;;;;3.37;76.39;98042.15;130326;1276;114814;-71
2023/02/25 04:48:41;;;;;;;8.10;4.20;;;;;;;3.39;76.36;98046.27;129931;1276;114775;-61
2023/02/25 04:51:44;;;;;;;8.10;4.00;;;;;;;3.41;76.08;98039.61;129756;1259;128496;-68
2023/02/25 04:54:47;;;;;;;9.50;4.50;;;;;;;3.44;76.08;98038.73;129962;1257;114708;-68
2023/02/25 04:57:49;;;;;;;6.70;4.10;;;;;;;3.47;76.16;98039.98;129913;1257;114730;-65
2023/02/25 05:00:53;;;;;;;6.60;3.50;;;;;;;3.49;76.18;98029.64;130048;1257;114744;-64
2023/02/25 05:03:56;;;;;;;8.20;3.70;;;;;;;3.51;76.15;98030.23;129910;1277;114721;-62
2023/02/25 05:06:59;;;;;;;10.70;3.90;;;;;;;3.52;75.85;98028.39;129955;1277;114680;-62
2023/02/25 05:10:03;;;;;;;9.20;3.90;;;;;;;3.54;75.77;98025.27;129869;1277;114782;-72
2023/02/25 05:13:06;;;;;;;10.90;3.90;;;;;;;3.56;75.63;98023.75;130021;1254;114809;-62
2023/02/25 05:16:11;;;;;;;7.90;4.20;;;;;;;3.58;75.82;98020.46;130009;1254;114726;-63
2023/02/25 05:19:21;;;;;;;11.90;3.70;;;;;;;3.58;75.64;98023.61;129873;1257;114753;-60
2023/02/25 05:22:25;;;;;;;7.20;3.80;;;;;;;3.59;75.73;98021.46;130048;1276;127803;-61
2023/02/25 05:25:27;;;;;;;10.90;3.90;;;;;;;3.59;75.59;98025.84;130086;1254;115222;-68
2023/02/25 05:28:30;;;;;;;12.20;3.90;;;;;;;3.60;75.48;98028.10;130245;1254;115135;-61
2023/02/25 05:31:33;;;;;;;8.70;3.40;;;;;;;3.61;75.57;98025.40;130114;1254;114727;-72
2023/02/25 05:34:37;;;;;;;8.50;3.80;;;;;;;3.62;75.54;98028.69;129993;1276;114709;-61
2023/02/25 05:37:39;;;;;;;9.50;3.90;;;;;;;3.62;75.66;98030.65;130040;1276;115377;-67
2023/02/25 05:40:42;;;;;;;9.00;4.30;;;;;;;3.62;75.65;98033.11;129899;1270;115198;-68
2023/02/25 05:43:44;;;;;;;10.10;3.70;;;;;;;3.62;75.87;98034.70;130084;1254;114716;-68
2023/02/25 05:46:48;;;;;;;13.60;4.00;;;;;;;3.61;75.89;98033.90;129712;1273;114737;-68
2023/02/25 05:49:50;;;;;;;10.20;3.50;;;;;;;3.60;76.03;98034.63;129580;1259;114815;-70
2023/02/25 05:52:53;;;;;;;5.40;3.30;;;;;;;3.60;76.12;98038.17;130010;1276;114741;-63
2023/02/25 05:55:56;;;;;;;8.10;4.30;;;;;;;3.59;76.23;98039.46;129941;1273;115278;-66
2023/02/25 05:58:58;;;;;;;8.30;3.60;;;;;;;3.57;76.22;98045.05;129937;1276;115403;-68
2023/02/25 06:02:02;;;;;;;9.40;3.50;;;;;;;3.56;76.45;98043.71;129721;1276;116346;-70
2023/02/25 06:05:05;;;;;;;8.00;3.80;;;;;;;3.55;76.51;98044.30;129743;1276;114757;-66
2023/02/25 06:08:11;;;;;;;7.30;3.50;;;;;;;3.54;76.49;98050.20;130098;1267;114657;-62
2023/02/25 06:11:22;;;;;;;9.50;3.70;;;;;;;3.52;76.57;98051.38;129976;1256;114716;-69
2023/02/25 06:14:26;;;;;;;6.80;3.40;;;;;;;3.51;76.87;98057.23;129947;1267;128897;-70
2023/02/25 06:17:29;;;;;;;6.40;3.30;;;;;;;3.52;76.88;98062.31;129734;1254;115335;-69
2023/02/25 06:20:32;;;;;;;5.70;3.30;;;;;;;3.50;76.88;98059.71;130057;1256;114807;-62
2023/02/25 06:23:36;;;;;;;4.80;2.80;;;;;;;3.52;76.97;98061.23;130011;1253;114733;-62
2023/02/25 06:26:41;;;;;;;6.30;2.90;;;;;;;3.53;76.98;98063.46;129633;1264;114795;-66
2023/02/25 06:29:47;;;;;;;6.70;3.50;;;;;;;3.55;77.11;98063.35;129646;1270;127704;-67
2023/02/25 06:32:49;;;;;;;5.20;2.80;;;;;;;3.56;76.96;98064.88;129700;1276;116402;-62
2023/02/25 06:35:53;;;;;;;5.70;3.20;;;;;;;3.56;76.99;98065.74;130007;1256;114773;-61
2023/02/25 06:38:55;;;;;;;3.90;2.60;;;;;;;3.56;77.00;98070.39;130105;1253;114757;-66
2023/02/25 06:41:58;;;;;;;4.10;3.20;;;;;;;3.55;77.06;98075.88;130105;1276;114703;-66
2023/02/25 06:45:01;;;;;;;5.20;2.90;;;;;;;3.56;77.28;98079.91;129989;1276;115287;-68
2023/02/25 06:48:03;;;;;;;4.50;2.80;;;;;;;3.56;77.16;98081.14;130068;1276;114836;-66
2023/02/25 06:51:08;;;;;;;8.30;3.60;;;;;;;3.56;77.17;98082.54;130041;1272;114757;-71
2023/02/25 06:54:11;;;;;;;4.00;3.50;;;;;;;3.56;77.23;98088.20;129717;1260;114842;-63
2023/02/25 06:57:13;;;;;;;3.60;3.30;;;;;;;3.54;77.14;98090.05;130028;1258;114747;-69
2023/02/25 07:00:16;;;;;;;4.90;3.70;;;;;;;3.55;77.24;98099.03;129971;1276;114738;-68
2023/02/25 07:03:19;;;;;;;4.00;3.20;;;;;;;3.56;77.24;98095.77;130061;1267;114836;-65
2023/02/25 07:06:21;;;;;;;5.00;3.40;;;;;;;3.58;77.09;98099.69;130096;1276;114984;-72
2023/02/25 07:09:24;;;;;;;4.00;3.10;;;;;;;3.59;77.13;98099.98;129737;1276;115255;-65
2023/02/25 07:12:27;;;;;;;9.00;3.40;;;;;;;3.62;77.17;98100.20;130412;1256;114778;-62
2023/02/25 07:15:29;;;;;;;3.20;2.60;;;;;;;3.64;77.13;98103.44;129971;1272;115472;-61
2023/02/25 07:18:32;;;;;;;6.10;3.40;;;;;;;3.70;77.39;98102.60;129986;1276;114869;-65
2023/02/25 07:21:34;;;;;;;7.10;3.30;;;;;;;3.76;77.43;98103.96;130174;1276;114745;-61
2023/02/25 07:24:37;;;;;;;4.50;3.50;;;;;;;3.83;77.31;98103.45;129974;1276;128863;-62
2023/02/25 07:27:41;;;;;;;9.80;4.10;;;;;;;3.87;77.20;98103.23;129948;1276;114811;-72
2023/02/25 07:30:44;;;;;;;6.70;4.50;;;;;;;3.91;77.08;98099.08;130104;1253;115226;-67
2023/02/25 07:33:47;;;;;;;7.30;5.20;;;;;;;3.96;77.08;98099.48;130041;1254;114720;-72
2023/02/25 07:36:50;;;;;;;6.10;4.10;;;;;;;3.98;76.99;98097.59;129936;1257;115150;-64
2023/02/25 07:39:52;;;;;;;5.70;4.00;;;;;;;4.02;76.99;98101.09;130092;1276;114842;-65
2023/02/25 07:42:54;;;;;;;7.10;3.60;;;;;;;4.01;77.08;98100.79;130093;1258;114757;-69
2023/02/25 07:46:01;;;;;;;4.80;3.80;;;;;;;4.01;77.19;98107.14;129857;1262;115201;-63
2023/02/25 07:49:04;;;;;;;5.00;2.90;;;;;;;4.02;77.18;98110.84;130225;1259;114737;-68
2023/02/25 07:52:07;;;;;;;4.00;3.00;;;;;;;4.02;77.29;98108.54;130241;1256;114786;-71
2023/02/25 07:55:10;;;;;;;4.00;3.10;;;;;;;4.01;77.12;98110.86;130038;1276;114780;-71
2023/02/25 07:58:12;;;;;;;4.10;3.70;;;;;;;4.04;77.25;98113.35;129992;1252;114803;-66
2023/02/25 08:01:23;;;;;;;3.10;2.80;;;;;;;4.09;77.35;98104.77;130007;1272;115430;-70
2023/02/25 08:04:26;;;;;;;3.60;3.20;;;;;;;4.16;77.41;98105.59;129789;1257;114872;-65
2023/02/25 08:07:29;;;;;;;5.20;3.50;;;;;;;4.19;77.33;98105.56;130106;1276;114721;-68
2023/02/25 08:10:32;;;;;;;4.20;3.30;;;;;;;4.22;77.12;98101.14;130077;1276;114727;-73
2023/02/25 08:13:35;;;;;;;3.10;2.70;;;;;;;4.23;76.91;98100.02;130006;1270;114789;-71
2023/02/25 08:16:37;;;;;;;4.30;2.90;;;;;;;4.27;77.14;98103.00;130003;1256;114712;-70
2023/02/25 08:19:40;;;;;;;3.80;3.30;;;;;;;4.30;76.92;98102.13;130096;1254;114692;-76
2023/02/25 08:22:43;;;;;;;6.60;3.90;;;;;;;4.32;76.94;98100.39;130015;1256;114725;-67
2023/02/25 08:25:45;;;;;;;4.90;3.90;;;;;;;4.35;76.95;98101.13;130431;1256;115160;-71
2023/02/25 08:28:49;;;;;;;5.40;4.10;;;;;;;4.38;76.93;98106.92;129730;1273;114814;-70
2023/02/25 08:31:52;;;;;;;6.60;3.50;;;;;;;4.37;76.78;98106.68;129691;1254;128038;-63
2023/02/25 08:34:56;;;;;;;;;;;;;;;4.35;76.75;98111.89;129987;1275;114744;-66
2023/02/25 08:37:59;;;;;;;3.40;3.10;;;;;;;4.34;76.90;98115.29;130026;1257;114821;-70
2023/02/25 08:41:01;;;;;;;4.50;4.10;;;;;;;4.34;76.83;98117.39;129906;1257;114735;-76
2023/02/25 08:44:04;;;;;;;3.80;3.50;;;;;;;4.36;76.93;98119.44;129927;1277;114725;-69
2023/02/25 08:47:06;;;;;;;3.60;3.30;;;;;;;4.40;76.98;98123.58;129909;1277;114731;-68
2023/02/25 08:50:09;;;;;;;4.50;2.80;;;;;;;4.46;77.17;98122.58;129912;1277;114813;-76
2023/02/25 08:53:11;;;;;;;2.90;2.60;;;;;;;4.51;77.12;98126.52;130019;1257;114738;-63
2023/02/25 08:56:15;;;;;;;3.20;2.90;;;;;;;4.55;76.99;98131.36;129994;1256;116328;-69
2023/02/25 08:59:17;;;;;;;4.00;3.30;;;;;;;4.59;76.86;98137.16;129997;1258;114758;-71
2023/02/25 09:02:20;;;;;;;2.90;2.50;;;;;;;4.60;76.93;98137.65;129886;1277;114801;-73
2023/02/25 09:05:23;;;;;;;3.90;3.20;;;;;;;4.60;76.96;98136.23;130082;1277;115529;-73
2023/02/25 09:08:27;;;;;;;5.60;3.20;;;;;;;4.60;76.79;98138.86;130070;1269;114812;-72
2023/02/25 09:11:29;;;;;;;7.90;4.30;;;;;;;4.63;76.73;98142.05;129704;1275;127942;-76
2023/02/25 09:14:33;;;;;;;3.30;3.00;;;;;;;4.63;76.75;98144.52;130295;1269;114728;-72
2023/02/25 09:17:37;;;;;;;5.30;2.90;;;;;;;4.62;76.79;98150.77;129665;1260;114910;-62
2023/02/25 09:20:39;;;;;;;3.60;3.00;;;;;;;4.62;76.73;98151.13;129830;1259;116201;-71
2023/02/25 09:23:42;;;;;;;4.20;3.40;;;;;;;4.60;76.61;98151.94;129971;1253;114821;-75
2023/02/25 09:26:45;;;;;;;3.40;2.60;;;;;;;4.62;76.65;98152.20;129868;1269;114744;-65
2023/02/25 09:29:48;;;;;;;3.20;2.90;;;;;;;4.67;76.77;98151.86;129998;1276;116091;-69
2023/02/25 09:32:50;;;;;;;2.50;2.30;;;;;;;4.74;76.62;98156.77;130073;1254;114755;-75
2023/02/25 09:35:53;;;;;;;8.90;5.00;;;;;;;4.75;76.72;98156.35;130124;1256;114753;-72
2023/02/25 09:38:56;;;;;;;6.10;3.80;;;;;;;4.78;76.70;98163.45;129873;1259;114863;-74
2023/02/25 09:42:08;;;;;;;3.60;3.00;;;;;;;4.78;76.48;98168.20;129962;1256;114812;-74
2023/02/25 09:45:16;;;;;;;4.00;2.50;;;;;;;4.78;76.61;98173.36;129837;1260;127942;-76
2023/02/25 09:48:25;;;;;;;3.30;2.60;;;;;;;4.75;76.38;98179.00;130041;1276;115336;-70
2023/02/25 09:51:42;;;;;;;3.70;2.30;;;;;;;4.71;76.51;98184.36;130044;1259;114725;-66
2023/02/25 09:54:47;;;;;;;3.60;2.50;;;;;;;4.70;76.21;98191.35;129826;1259;114889;-74
2023/02/25 09:58:02;;;;;;;10.00;6.50;;;;;;;4.75;76.84;98192.98;129779;1261;114858;-70
2023/02/25 10:01:10;;;;;;;3.60;3.00;;;;;;;4.86;76.93;98199.72;129713;1276;128152;-65
2023/02/25 10:04:34;;;;;;;5.70;3.00;;;;;;;4.93;76.83;98197.02;129905;1262;115237;-68
2023/02/25 10:07:58;;;;;;;3.60;2.20;;;;;;;4.96;76.52;98205.50;129949;1265;114792;-64
2023/02/25 10:11:08;;;;;;;6.30;4.30;;;;;;;5.06;76.75;98203.86;129946;1254;114847;-63
2023/02/25 10:14:21;;;;;;;4.20;3.30;;;;;;;5.21;77.09;98208.80;130354;1256;114728;-64
2023/02/25 10:17:42;;;;;;;3.60;2.20;;;;;;;5.39;77.20;98209.13;129955;1261;127740;-69
2023/02/25 10:20:54;;;;;;;3.80;2.10;;;;;;;5.53;77.07;98214.94;130292;1255;115376;-75
2023/02/25 10:24:03;;;;;;;3.90;3.50;;;;;;;5.66;76.79;98213.23;130256;1254;114804;-66
2023/02/25 10:27:29;;;;;;;3.30;2.20;;;;;;;5.72;76.32;98217.51;129970;1257;115346;-73
2023/02/25 10:31:05;;;;;;;4.60;2.30;;;;;;;5.76;76.07;98220.05;130014;1257;114725;-76
2023/02/25 10:34:21;;;;;;;;;;;;;;;5.82;75.97;98213.33;130451;1253;128980;-67
2023/02/25 10:37:34;;;;;;;2.30;2.10;;;;;;;5.88;76.05;98213.14;129988;1276;115272;-63
2023/02/25 10:40:39;;;;;;;3.00;2.20;;;;;;;5.98;76.01;98215.83;129813;1254;114822;-66
2023/02/25 10:43:43;;;;;;;2.90;2.60;;;;;;;6.08;76.11;98215.20;130071;1257;114727;-69
2023/02/25 10:47:01;;;;;;;2.60;1.90;;;;;;;6.24;76.22;98218.42;129868;1256;115006;-74
2023/02/25 10:50:14;;;;;;;5.30;3.00;;;;;;;6.38;75.92;98214.20;129825;1267;127357;-73
2023/02/25 10:53:17;;;;;;;2.40;1.60;;;;;;;6.45;75.20;98215.82;130008;1254;115189;-71
2023/02/25 10:56:20;;;;;;;2.50;1.60;;;;;;;6.44;74.99;98222.49;130176;1259;115189;-68
2023/02/25 10:59:38;;;;;;;2.60;1.80;;;;;;;6.36;74.44;98231.69;129950;1276;115240;-60
2023/02/25 11:02:41;;;;;;;2.00;1.80;;;;;;;6.27;74.59;98237.24;130072;1256;114729;-61
2023/02/25 11:05:43;;;;;;;2.10;1.70;;;;;;;6.17;74.20;98239.82;130027;1267;127852;-61
2023/02/25 11:08:46;;;;;;;1.80;1.60;;;;;;;6.12;74.38;98242.30;130060;1257;114792;-61
2023/02/25 11:12:14;;;;;;;2.10;1.80;;;;;;;6.11;74.51;98248.75;129948;1266;114805;-61
2023/02/25 11:15:25;;;;;;;2.20;1.80;;;;;;;6.11;74.34;98252.63;129883;1259;114735;-61
2023/02/25 11:18:31;;;;;;;3.00;1.90;;;;;;;6.13;74.62;98254.23;129853;1276;114766;-60
2023/02/25 11:21:36;;;;;;;1.60;1.40;;;;;;;6.12;74.33;98262.80;129890;1259;128762;-59
2023/02/25 11:24:38;;;;;;;3.30;2.10;;;;;;;6.05;74.11;98265.60;129756;1276;114955;-58
2023/02/25 11:27:42;;;;;;;1.40;1.30;;;;;;;6.09;74.43;98263.20;130217;1254;115229;-59
2023/02/25 11:30:45;;;;;;;1.60;1.50;;;;;;;6.14;74.31;98266.63;129891;1259;114798;-59
2023/02/25 11:33:56;;;;;;;1.30;1.20;;;;;;;6.15;74.27;98261.17;130009;1256;114795;-62
2023/02/25 11:37:36;;;;;;;1.50;1.40;;;;;;;6.25;74.39;98265.56;130046;1253;129116;-60
2023/02/25 11:40:43;;;;;;;1.40;1.10;;;;;;;6.39;74.60;98266.24;130050;1257;115240;-61
2023/02/25 11:43:45;;;;;;;2.00;1.10;;;;;;;6.52;74.36;98264.52;130162;1272;115096;-60
2023/02/25 11:46:59;;;;;;;2.60;0.90;;;;;;;6.57;74.10;98271.61;130021;1268;114721;-61
2023/02/25 11:50:23;;;;;;;4.70;1.30;;;;;;;6.61;73.89;98274.94;129760;1265;115145;-61
2023/02/25 11:53:53;;;;;;;1.90;1.40;;;;;;;6.55;73.36;98285.95;129833;1275;128851;-61
2023/02/25 11:57:07;;;;;;;1.00;1.00;;;;;;;6.47;73.43;98290.14;129748;1275;116431;-59
2023/02/25 12:00:19;;;;;;;1.50;1.40;;;;;;;6.47;73.53;98290.73;129811;1272;114861;-60
2023/02/25 12:03:56;;;;;;;2.00;1.20;;;;;;;6.49;73.84;98293.10;130097;1256;114729;-59
2023/02/25 12:07:26;;;;;;;1.50;1.20;;;;;;;6.50;73.75;98291.38;128979;1274;114933;-59
2023/02/25 12:11:05;;;;;;;0.80;0.80;;;;;;;6.56;73.55;98296.00;129227;1283;129025;-60
2023/02/25 12:14:35;;;;;;;1.50;1.20;;;;;;;6.58;73.25;98296.20;129055;1260;116514;-61
2023/02/25 12:18:16;;;;;;;1.50;1.20;;;;;;;6.58;72.89;98299.07;129027;1263;114899;-60
2023/02/25 12:21:53;;;;;;;2.90;1.10;;;;;;;6.61;73.07;98306.30;129169;1263;114908;-60
2023/02/25 12:25:18;;;;;;;2.20;1.20;;;;;;;6.61;72.70;98307.17;129027;1265;115052;-60
2023/02/25 12:28:26;;;;;;;4.30;2.70;;;;;;;6.54;72.52;98309.61;129132;1272;128843;-58
2023/02/25 12:32:00;;;;;;;8.80;5.20;;;;;;;6.47;72.76;98308.60;129139;1283;115304;-59
2023/02/25 12:35:26;;;;;;;3.30;2.00;;;;;;;6.43;72.78;98312.25;129183;1263;115005;-63
2023/02/25 12:39:07;;;;;;;3.60;2.30;;;;;;;6.40;72.50;98318.32;129135;1268;114824;-61
2023/02/25 12:42:10;;;;;;;4.20;2.40;;;;;;;6.32;72.29;98325.01;129185;1265;114798;-61
2023/02/25 12:45:40;;;;;;;4.10;1.70;;;;;;;6.19;72.31;98326.35;129822;1256;114811;-60
2023/02/25 12:49:11;;;;;;;3.70;2.30;;;;;;;6.11;72.28;98330.44;129684;1276;114908;-60
2023/02/25 12:52:37;;;;;;;1.90;1.70;;;;;;;5.97;72.56;98337.80;129831;1254;114965;-59
2023/02/25 12:56:01;;;;;;;3.10;1.40;;;;;;;5.91;72.77;98342.92;129608;1270;114854;-59
2023/02/25 12:59:39;;;;;;;1.80;1.30;;;;;;;5.82;72.54;98346.88;129611;1262;114835;-61
2023/02/25 13:03:08;;;;;;;3.50;1.60;;;;;;;5.71;72.60;98359.09;129179;1278;128830;-60
2023/02/25 13:06:38;;;;;;;5.30;2.50;;;;;;;5.57;72.27;98368.03;128962;1278;115864;-60
2023/02/25 13:10:07;;;;;;;2.50;1.70;;;;;;;5.44;72.66;98375.71;129059;1265;114973;-61
2023/02/25 13:13:28;;;;;;;1.40;1.30;;;;;;;5.32;72.71;98385.63;129226;1262;114843;-62
2023/02/25 13:16:57;;;;;;;2.10;1.90;;;;;;;5.25;73.11;98389.08;129008;1268;114850;-58
2023/02/25 13:20:22;;;;;;;14.20;8.30;;;;;;;5.17;73.07;98396.59;129022;1276;126587;-61
2023/02/25 13:23:43;;;;;;;21.00;12.20;;;;;;;5.11;73.19;98398.36;129163;1278;188694;-60
2023/02/25 13:27:01;;;;;;;13.00;8.30;;;;;;;5.06;73.50;98402.36;129118;1264;115017;-59
2023/02/25 13:30:10;;;;;;;14.30;8.50;;;;;;;5.03;73.50;98405.04;129128;1281;114829;-59
2023/02/25 13:33:44;;;;;;;38.00;13.50;;;;;;;4.95;73.38;98407.39;129135;1265;114766;-59
2023/02/25 13:36:54;;;;;;;38.60;12.80;;;;;;;4.89;73.58;98413.59;129403;1281;129815;-60
2023/02/25 13:40:38;;;;;;;23.70;12.50;;;;;;;4.85;73.75;98418.95;129469;1277;114908;-60
2023/02/25 13:44:01;;;;;;;15.10;12.00;;;;;;;4.82;73.86;98423.34;129572;1259;114849;-60
2023/02/25 13:47:16;;;;;;;6.80;4.70;;;;;;;4.83;73.96;98428.06;129651;1254;116394;-60
2023/02/25 13:50:40;;;;;;;4.40;3.30;;;;;;;4.88;74.27;98436.10;129562;1275;114703;-59
2023/02/25 13:54:01;;;;;;;3.00;2.50;;;;;;;4.93;74.28;98442.89;129461;1269;128569;-62
2023/02/25 13:57:22;;;;;;;7.40;3.60;;;;;;;4.95;74.39;98445.27;129807;1277;115249;-59
2023/02/25 14:00:59;;;;;;;3.70;2.60;;;;;;;4.99;74.38;98448.02;129768;1262;114890;-60
2023/02/25 14:04:28;;;;;;;3.90;2.10;;;;;;;5.01;74.63;98458.89;129634;1260;116323;-60
2023/02/25 14:07:56;;;;;;;3.40;2.80;;;;;;;5.01;74.27;98463.86;129660;1259;114866;-59
2023/02/25 14:11:20;;;;;;;9.20;5.30;;;;;;;4.99;74.42;98472.44;129658;1275;128407;-60
2023/02/25 14:14:34;;;;;;;9.80;5.60;;;;;;;5.04;74.57;98476.42;129727;1276;115150;-60
2023/02/25 14:18:02;;;;;;;11.20;5.30;;;;;;;5.10;74.70;98485.13;129608;1276;114838;-60
2023/02/25 14:21:13;;;;;;;7.70;5.00;;;;;;;5.14;74.70;98488.21;129834;1270;115308;-59
2023/02/25 14:24:18;;;;;;;6.50;4.60;;;;;;;5.19;74.64;98493.64;129634;1262;114831;-59
2023/02/25 14:27:50;;;;;;;3.80;2.70;;;;;;;5.22;74.83;98499.14;129817;1260;128695;-60
2023/02/25 14:31:13;;;;;;;7.30;4.00;;;;;;;5.23;74.48;98504.00;129388;1262;114929;-60
2023/02/25 14:34:22;;;;;;;3.80;3.10;;;;;;;5.24;74.63;98510.01;129335;1266;115044;-59
2023/02/25 14:37:44;;;;;;;6.80;4.00;;;;;;;5.25;74.60;98512.05;129113;1266;115391;-60
2023/02/25 14:41:08;;;;;;;2.50;2.10;;;;;;;5.22;74.47;98514.69;129344;1273;115123;-60